Weather at Cherbourg-Maupertus Airport

Public forecast

Using degrees Celsius for public forecast. Weather courtesy of forecast.io.

Current aviation weather report (METAR) for Cherbourg-Maupertus Airport

2024/05/29 17:00 (retrieved 35 minutes ago)

LFRC 291700Z AUTO 30010KT 8000 FEW006 BKN013 BKN038 13/12 Q1011 BECMG SCT012 BKN025

Closest aviation forecast (TAF) to Cherbourg-Maupertus Airport

Closest forecast is Le Havre-Octeville Airport, 61.1 nm (113.1 km) E.

2024/05/29 15:20 Ammendment (retrieved 2 hours ago)

TAF AMD LFOH 291511Z 2915/3012 25010KT 9999 BKN016 TEMPO 2915/2919 4000 RA BKN009 OVC014 PROB40 TEMPO 2915/2919 1500 RA BKN002 OVC009 BECMG 3003/3005 31012KT TEMPO 3005/3012 4000 SHRA BKN008 BKN014TCU PROB30 TEMPO 3008/3012 31015G25KT 2000 TSRA BKN006 BKN012CB